Time;durP1;ratioP1;P1;durP2;ratioP2;P2;SDS_P1;SDS_P2;PMS_P1;PMS_P2;Temp;Humidity;BMP_temperature;BMP_pressure;BME280_temperature;BME280_humidity;BME280_pressure;Samples;Min_cycle;Max_cycle;Signal;HPM_P1;HPM_P2
2022/10/23 00:00:03;;;;;;;;;;;;;;;;;;2106949;28;20170;-56
2022/10/23 00:01:04;;;;;;;;;;;;;;;;;;2106821;28;19943;-56
2022/10/23 00:02:05;;;;;;;;;;;;;;;;;;2106958;28;19970;-56
2022/10/23 00:03:05;;;;;;;;;;;;;;;;;;2106767;28;19924;-56
2022/10/23 00:04:06;;;;;;;;;;;;;;;;;;2106915;28;19920;-56
2022/10/23 00:05:07;;;;;;;;;;;;;;;;;;2106969;28;20403;-56
2022/10/23 00:06:08;;;;;;;;;;;;;;;;;;2106827;28;19927;-56
2022/10/23 00:07:09;;;;;;;;;;;;;;;;;;2106724;28;19927;-56
2022/10/23 00:08:10;;;;;;;;;;;;;;;;;;2106797;28;19927;-56
2022/10/23 00:09:11;;;;;;;;;;;;;;;;;;2106986;28;19951;-56
2022/10/23 00:10:12;;;;;;;;;;;;;;;;;;2101994;28;19920;-56
2022/10/23 00:11:13;;;;;;;;;;;;;;;;;;2098636;28;20360;-57
2022/10/23 00:12:14;;;;;;;;;;;;;;;;;;2098554;28;19928;-56
2022/10/23 00:13:15;;;;;;;;;;;;;;;;;;2098463;28;20010;-58
2022/10/23 00:14:15;;;;;;;;;;;;;;;;;;2102165;28;20380;-56
2022/10/23 00:15:16;;;;;;;;;;;;;;;;;;2106778;28;19927;-56
2022/10/23 00:16:17;;;;;;;;;;;;;;;;;;2106155;28;19919;-56
2022/10/23 00:17:18;;;;;;;;;;;;;;;;;;2106164;28;19920;-56
2022/10/23 00:18:19;;;;;;;;;;;;;;;;;;2106746;28;19966;-57
2022/10/23 00:19:19;;;;;;;;;;;;;;;;;;2106668;28;19959;-57
2022/10/23 00:20:20;;;;;;;;;;;;;;;;;;2106978;28;20274;-56
2022/10/23 00:21:21;;;;;;;;;;;;;;;;;;2103892;28;19927;-57
2022/10/23 00:22:22;;;;;;;;;;;;;;;;;;2098475;28;19921;-46
2022/10/23 00:23:23;;;;;;;;;;;;;;;;;;2098519;28;19920;-57
2022/10/23 00:24:24;;;;;;;;;;;;;;;;;;2098350;28;19920;-57
2022/10/23 00:25:25;;;;;;;;;;;;;;;;;;2098355;28;19920;-57
2022/10/23 00:26:25;;;;;;;;;;;;;;;;;;2098283;28;19924;-56
2022/10/23 00:27:26;;;;;;;;;;;;;;;;;;2098213;28;19920;-57
2022/10/23 00:28:27;;;;;;;;;;;;;;;;;;2098268;28;19931;-57
2022/10/23 00:29:28;;;;;;;;;;;;;;;;;;2098438;28;20019;-57
2022/10/23 00:30:28;;;;;;;;;;;;;;;;;;2098360;28;19959;-57
2022/10/23 00:31:29;;;;;;;;;;;;;;;;;;2098322;28;19920;-57
2022/10/23 00:32:30;;;;;;;;;;;;;;;;;;2098382;28;19920;-57
2022/10/23 00:33:36;;;;;;;;;;;;;;;;;;2098348;28;19931;-57
2022/10/23 00:34:36;;;;;;;;;;;;;;;;;;2098309;28;19927;-57
2022/10/23 00:35:37;;;;;;;;;;;;;;;;;;2098380;28;19921;-57
2022/10/23 00:36:38;;;;;;;;;;;;;;;;;;2098190;28;19924;-56
2022/10/23 00:37:39;;;;;;;;;;;;;;;;;;2098279;28;19927;-57
2022/10/23 00:38:40;;;;;;;;;;;;;;;;;;2098354;28;19978;-57
2022/10/23 00:39:41;;;;;;;;;;;;;;;;;;2098224;28;19965;-57
2022/10/23 00:40:43;;;;;;;;;;;;;;;;;;2098347;28;19920;-57
2022/10/23 00:41:44;;;;;;;;;;;;;;;;;;2098248;28;19927;-57
2022/10/23 00:42:45;;;;;;;;;;;;;;;;;;2098496;28;20112;-56
2022/10/23 00:43:46;;;;;;;;;;;;;;;;;;2098190;28;20309;-56
2022/10/23 00:44:47;;;;;;;;;;;;;;;;;;2098407;28;19956;-57
2022/10/23 00:45:47;;;;;;;;;;;;;;;;;;2098295;28;19920;-57
2022/10/23 00:46:48;;;;;;;;;;;;;;;;;;2098185;28;19966;-56
2022/10/23 00:47:49;;;;;;;;;;;;;;;;;;2098414;28;19963;-56
2022/10/23 00:48:50;;;;;;;;;;;;;;;;;;2098224;28;19943;-56
2022/10/23 00:49:50;;;;;;;;;;;;;;;;;;2098410;28;19920;-57
2022/10/23 00:50:51;;;;;;;;;;;;;;;;;;2098353;28;19920;-56
2022/10/23 00:51:52;;;;;;;;;;;;;;;;;;2098292;28;19920;-56
2022/10/23 00:52:53;;;;;;;;;;;;;;;;;;2098223;28;19967;-56
2022/10/23 00:53:54;;;;;;;;;;;;;;;;;;2098178;28;19921;-56
2022/10/23 00:55:06;;;;;;;;;;;;;;;;;;2098230;28;19927;-56
2022/10/23 00:56:07;;;;;;;;;;;;;;;;;;2098196;28;19920;-56
2022/10/23 00:57:08;;;;;;;;;;;;;;;;;;2098187;28;20373;-55
2022/10/23 00:58:09;;;;;;;;;;;;;;;;;;2098236;28;19924;-56
2022/10/23 00:59:10;;;;;;;;;;;;;;;;;;2098218;28;20361;-56
2022/10/23 01:00:10;;;;;;;;;;;;;;;;;;2098079;28;20002;-56
2022/10/23 01:01:11;;;;;;;;;;;;;;;;;;2098265;28;19921;-56
2022/10/23 01:02:12;;;;;;;;;;;;;;;;;;2097940;28;20423;-56
2022/10/23 01:03:13;;;;;;;;;;;;;;;;;;2098135;28;19985;-56
2022/10/23 01:04:14;;;;;;;;;;;;;;;;;;2098151;28;19966;-56
2022/10/23 01:05:15;;;;;;;;;;;;;;;;;;2098211;28;20042;-56
2022/10/23 01:06:15;;;;;;;;;;;;;;;;;;2098111;28;19932;-56
2022/10/23 01:07:16;;;;;;;;;;;;;;;;;;2098090;28;19927;-56
2022/10/23 01:08:17;;;;;;;;;;;;;;;;;;2098309;28;20320;-56
2022/10/23 01:09:18;;;;;;;;;;;;;;;;;;2098094;28;20369;-56
2022/10/23 01:10:19;;;;;;;;;;;;;;;;;;2100081;28;19920;-56
2022/10/23 01:11:20;;;;;;;;;;;;;;;;;;2106514;28;19920;-56
2022/10/23 01:12:20;;;;;;;;;;;;;;;;;;2106572;28;20505;-56
2022/10/23 01:13:21;;;;;;;;;;;;;;;;;;2106466;28;20400;-56
2022/10/23 01:14:22;;;;;;;;;;;;;;;;;;2106664;28;19919;-55
2022/10/23 01:15:23;;;;;;;;;;;;;;;;;;2106425;28;19920;-55
2022/10/23 01:16:23;;;;;;;;;;;;;;;;;;2106313;28;20022;-57
2022/10/23 01:17:24;;;;;;;;;;;;;;;;;;2105307;28;19965;-56
2022/10/23 01:18:25;;;;;;;;;;;;;;;;;;2098230;28;19920;-55
2022/10/23 01:19:26;;;;;;;;;;;;;;;;;;2098156;28;20344;-55
2022/10/23 01:20:27;;;;;;;;;;;;;;;;;;2098019;28;19920;-55
2022/10/23 01:21:28;;;;;;;;;;;;;;;;;;2098294;28;19920;-45
2022/10/23 01:22:28;;;;;;;;;;;;;;;;;;2098058;28;20041;-45
2022/10/23 01:23:29;;;;;;;;;;;;;;;;;;2098174;28;19955;-45
2022/10/23 01:24:30;;;;;;;;;;;;;;;;;;2098062;28;20374;-46
2022/10/23 01:25:31;;;;;;;;;;;;;;;;;;2097988;28;20327;-45
2022/10/23 01:26:32;;;;;;;;;;;;;;;;;;2098030;28;19927;-46
2022/10/23 01:27:32;;;;;;;;;;;;;;;;;;2098344;28;20010;-45
2022/10/23 01:28:33;;;;;;;;;;;;;;;;;;2100836;28;19927;-45
2022/10/23 01:29:34;;;;;;;;;;;;;;;;;;2100716;28;19974;-45
2022/10/23 01:30:35;;;;;;;;;;;;;;;;;;2100760;28;19920;-46
2022/10/23 01:31:36;;;;;;;;;;;;;;;;;;2100613;28;19924;-45
2022/10/23 01:32:36;;;;;;;;;;;;;;;;;;2100762;28;19920;-45
2022/10/23 01:33:37;;;;;;;;;;;;;;;;;;2100719;28;19927;-45
2022/10/23 01:34:38;;;;;;;;;;;;;;;;;;2100721;28;19920;-46
2022/10/23 01:35:39;;;;;;;;;;;;;;;;;;2100695;28;19920;-45
2022/10/23 01:36:40;;;;;;;;;;;;;;;;;;2100702;28;19920;-46
2022/10/23 01:37:41;;;;;;;;;;;;;;;;;;2100851;28;19991;-45
2022/10/23 01:38:41;;;;;;;;;;;;;;;;;;2100750;28;19920;-46
2022/10/23 01:39:42;;;;;;;;;;;;;;;;;;2100852;28;19971;-45
2022/10/23 01:40:43;;;;;;;;;;;;;;;;;;2100689;28;20434;-46
2022/10/23 01:41:44;;;;;;;;;;;;;;;;;;2100663;28;20285;-45
2022/10/23 01:42:44;;;;;;;;;;;;;;;;;;2100723;28;19924;-45
2022/10/23 01:43:46;;;;;;;;;;;;;;;;;;2100629;28;20031;-46
2022/10/23 01:44:46;;;;;;;;;;;;;;;;;;2100592;28;19974;-46
2022/10/23 01:45:47;;;;;;;;;;;;;;;;;;2100657;28;19921;-46
2022/10/23 01:46:48;;;;;;;;;;;;;;;;;;2100591;28;20389;-46
2022/10/23 01:47:49;;;;;;;;;;;;;;;;;;2100654;28;19928;-46
2022/10/23 01:48:50;;;;;;;;;;;;;;;;;;2100687;28;19920;-46
2022/10/23 01:49:51;;;;;;;;;;;;;;;;;;2100611;28;19929;-46
2022/10/23 01:50:51;;;;;;;;;;;;;;;;;;2100653;28;19920;-46
2022/10/23 01:51:52;;;;;;;;;;;;;;;;;;2100571;28;19920;-46
2022/10/23 01:52:53;;;;;;;;;;;;;;;;;;2100599;28;19927;-46
2022/10/23 01:53:54;;;;;;;;;;;;;;;;;;2100593;28;19920;-46
2022/10/23 01:54:55;;;;;;;;;;;;;;;;;;2100676;28;19951;-46
2022/10/23 01:55:56;;;;;;;;;;;;;;;;;;2100715;28;19982;-46
2022/10/23 01:56:57;;;;;;;;;;;;;;;;;;2100534;28;19942;-45
2022/10/23 01:57:57;;;;;;;;;;;;;;;;;;2100696;28;19970;-46
2022/10/23 01:58:58;;;;;;;;;;;;;;;;;;2100860;28;19920;-47
2022/10/23 01:59:59;;;;;;;;;;;;;;;;;;2100639;28;19939;-47
2022/10/23 02:01:00;;;;;;;;;;;;;;;;;;2100528;28;20023;-45
2022/10/23 02:02:00;;;;;;;;;;;;;;;;;;2100628;28;20007;-46
2022/10/23 02:03:03;;;;;;;;;;;;;;;;;;2100637;28;20449;-46
2022/10/23 02:04:04;;;;;;;;;;;;;;;;;;2100542;28;19920;-47
2022/10/23 02:05:05;;;;;;;;;;;;;;;;;;2100578;28;20062;-46
2022/10/23 02:06:05;;;;;;;;;;;;;;;;;;2100619;28;19925;-45
2022/10/23 02:07:06;;;;;;;;;;;;;;;;;;2107153;28;19924;-46
2022/10/23 02:08:07;;;;;;;;;;;;;;;;;;2109052;28;19927;-46
2022/10/23 02:09:08;;;;;;;;;;;;;;;;;;2108889;28;20019;-46
2022/10/23 02:10:08;;;;;;;;;;;;;;;;;;2104599;28;19921;-46
2022/10/23 02:11:10;;;;;;;;;;;;;;;;;;2100756;28;19971;-46
2022/10/23 02:12:11;;;;;;;;;;;;;;;;;;2100540;28;19920;-46
2022/10/23 02:13:12;;;;;;;;;;;;;;;;;;2100586;28;19943;-45
2022/10/23 02:14:12;;;;;;;;;;;;;;;;;;2100426;28;20011;-45
2022/10/23 02:15:13;;;;;;;;;;;;;;;;;;2100526;28;20332;-46
2022/10/23 02:16:14;;;;;;;;;;;;;;;;;;2100465;28;19967;-46
2022/10/23 02:17:15;;;;;;;;;;;;;;;;;;2100486;28;20305;-45
2022/10/23 02:18:16;;;;;;;;;;;;;;;;;;2100567;28;20395;-45
2022/10/23 02:19:17;;;;;;;;;;;;;;;;;;2100489;28;19971;-45
2022/10/23 02:20:18;;;;;;;;;;;;;;;;;;2100676;28;20411;-46
2022/10/23 02:21:19;;;;;;;;;;;;;;;;;;2100485;28;19920;-46
2022/10/23 02:22:19;;;;;;;;;;;;;;;;;;2100569;28;19924;-46
2022/10/23 02:23:20;;;;;;;;;;;;;;;;;;2100451;28;19920;-45
2022/10/23 02:24:21;;;;;;;;;;;;;;;;;;2100473;28;19928;-46
2022/10/23 02:25:22;;;;;;;;;;;;;;;;;;2100433;28;20010;-45
2022/10/23 02:26:23;;;;;;;;;;;;;;;;;;2100498;28;19920;-45
2022/10/23 02:27:24;;;;;;;;;;;;;;;;;;2100498;28;19921;-45
2022/10/23 02:28:25;;;;;;;;;;;;;;;;;;2100635;28;20022;-46
2022/10/23 02:29:26;;;;;;;;;;;;;;;;;;2100581;28;19924;-46
2022/10/23 02:30:26;;;;;;;;;;;;;;;;;;2100479;28;19972;-45
2022/10/23 02:31:27;;;;;;;;;;;;;;;;;;2100605;28;20006;-46
2022/10/23 02:32:28;;;;;;;;;;;;;;;;;;2100458;28;20018;-45
2022/10/23 02:33:29;;;;;;;;;;;;;;;;;;2100598;28;19948;-46
2022/10/23 02:34:30;;;;;;;;;;;;;;;;;;2100357;28;20374;-46
2022/10/23 02:35:30;;;;;;;;;;;;;;;;;;2100533;28;19959;-46
2022/10/23 02:36:31;;;;;;;;;;;;;;;;;;2100345;28;20361;-46
2022/10/23 02:37:32;;;;;;;;;;;;;;;;;;2100439;28;19921;-46
2022/10/23 02:38:33;;;;;;;;;;;;;;;;;;2100404;28;19974;-46
2022/10/23 02:39:34;;;;;;;;;;;;;;;;;;2098846;28;19962;-45
2022/10/23 02:40:35;;;;;;;;;;;;;;;;;;2099009;28;19952;-45
2022/10/23 02:41:36;;;;;;;;;;;;;;;;;;2098938;28;20031;-46
2022/10/23 02:42:36;;;;;;;;;;;;;;;;;;2099169;28;19954;-45
2022/10/23 02:43:37;;;;;;;;;;;;;;;;;;2099010;28;20356;-45
2022/10/23 02:44:38;;;;;;;;;;;;;;;;;;2099026;28;19965;-46
2022/10/23 02:45:39;;;;;;;;;;;;;;;;;;2099022;28;19921;-46
2022/10/23 02:46:40;;;;;;;;;;;;;;;;;;2099012;28;19921;-45
2022/10/23 02:47:41;;;;;;;;;;;;;;;;;;2099020;28;20331;-46
2022/10/23 02:48:42;;;;;;;;;;;;;;;;;;2099066;28;19920;-46
2022/10/23 02:49:43;;;;;;;;;;;;;;;;;;2098952;28;19920;-45
2022/10/23 02:50:44;;;;;;;;;;;;;;;;;;2099277;28;20007;-46
2022/10/23 02:51:45;;;;;;;;;;;;;;;;;;2099161;28;20338;-45
2022/10/23 02:52:46;;;;;;;;;;;;;;;;;;2098967;28;19924;-45
2022/10/23 02:53:47;;;;;;;;;;;;;;;;;;2099018;28;19928;-46
2022/10/23 02:54:48;;;;;;;;;;;;;;;;;;2099009;28;20285;-45
2022/10/23 02:55:49;;;;;;;;;;;;;;;;;;2098978;28;19926;-46
2022/10/23 02:56:49;;;;;;;;;;;;;;;;;;2098818;28;19927;-45
2022/10/23 02:57:51;;;;;;;;;;;;;;;;;;2098944;28;20427;-45
2022/10/23 02:58:55;;;;;;;;;;;;;;;;;;2098995;28;19920;-45
2022/10/23 02:59:56;;;;;;;;;;;;;;;;;;2099107;28;19928;-45
2022/10/23 03:00:57;;;;;;;;;;;;;;;;;;2099028;28;19920;-45
2022/10/23 03:01:58;;;;;;;;;;;;;;;;;;2099008;28;19921;-46
2022/10/23 03:02:58;;;;;;;;;;;;;;;;;;2102309;28;19943;-46
2022/10/23 03:03:59;;;;;;;;;;;;;;;;;;2107268;28;20022;-45
2022/10/23 03:05:00;;;;;;;;;;;;;;;;;;2107371;28;19924;-45
2022/10/23 03:06:01;;;;;;;;;;;;;;;;;;2107226;28;19974;-45
2022/10/23 03:07:02;;;;;;;;;;;;;;;;;;2107185;28;19942;-46
2022/10/23 03:08:03;;;;;;;;;;;;;;;;;;2107260;28;19920;-45
2022/10/23 03:09:04;;;;;;;;;;;;;;;;;;2107329;28;19920;-45
2022/10/23 03:10:04;;;;;;;;;;;;;;;;;;2103326;28;19920;-46
2022/10/23 03:11:05;;;;;;;;;;;;;;;;;;2098865;28;19966;-45
2022/10/23 03:12:06;;;;;;;;;;;;;;;;;;2098782;28;19935;-46
2022/10/23 03:13:07;;;;;;;;;;;;;;;;;;2098795;28;19974;-46
2022/10/23 03:14:08;;;;;;;;;;;;;;;;;;2098990;28;19920;-46
2022/10/23 03:15:08;;;;;;;;;;;;;;;;;;2098826;28;19920;-46
2022/10/23 03:16:09;;;;;;;;;;;;;;;;;;2098922;28;19920;-46
2022/10/23 03:17:10;;;;;;;;;;;;;;;;;;2098635;28;20353;-45
2022/10/23 03:18:11;;;;;;;;;;;;;;;;;;2098918;28;19920;-46
2022/10/23 03:19:12;;;;;;;;;;;;;;;;;;2098865;28;19921;-45
2022/10/23 03:20:17;;;;;;;;;;;;;;;;;;2098812;28;19920;-45
2022/10/23 03:21:18;;;;;;;;;;;;;;;;;;2098770;28;19920;-45
2022/10/23 03:22:19;;;;;;;;;;;;;;;;;;2098668;28;19959;-45
2022/10/23 03:23:21;;;;;;;;;;;;;;;;;;2098771;28;20369;-45
2022/10/23 03:24:21;;;;;;;;;;;;;;;;;;2098712;28;19970;-46
2022/10/23 03:25:22;;;;;;;;;;;;;;;;;;2098863;28;19924;-46
2022/10/23 03:26:23;;;;;;;;;;;;;;;;;;2098723;28;19920;-46
2022/10/23 03:27:24;;;;;;;;;;;;;;;;;;2098725;28;19928;-45
2022/10/23 03:28:25;;;;;;;;;;;;;;;;;;2098694;28;20400;-45
2022/10/23 03:29:26;;;;;;;;;;;;;;;;;;2098892;28;19974;-46
2022/10/23 03:30:26;;;;;;;;;;;;;;;;;;2098678;28;20289;-46
2022/10/23 03:31:27;;;;;;;;;;;;;;;;;;2098824;28;20365;-46
2022/10/23 03:32:28;;;;;;;;;;;;;;;;;;2098785;28;20373;-46
2022/10/23 03:33:29;;;;;;;;;;;;;;;;;;2098703;28;20361;-46
2022/10/23 03:34:29;;;;;;;;;;;;;;;;;;2098707;28;19928;-46
2022/10/23 03:35:30;;;;;;;;;;;;;;;;;;2098641;28;19928;-45
2022/10/23 03:36:31;;;;;;;;;;;;;;;;;;2098554;28;19920;-46
2022/10/23 03:37:32;;;;;;;;;;;;;;;;;;2098657;28;19928;-45
2022/10/23 03:38:33;;;;;;;;;;;;;;;;;;2098797;28;19935;-45
2022/10/23 03:39:34;;;;;;;;;;;;;;;;;;2098705;28;19921;-45
2022/10/23 03:40:35;;;;;;;;;;;;;;;;;;2098617;28;20018;-45
2022/10/23 03:41:35;;;;;;;;;;;;;;;;;;2098662;28;19924;-46
2022/10/23 03:42:36;;;;;;;;;;;;;;;;;;2098774;28;20281;-46
2022/10/23 03:43:37;;;;;;;;;;;;;;;;;;2098576;28;20366;-46
2022/10/23 03:44:38;;;;;;;;;;;;;;;;;;2098596;28;19931;-46
2022/10/23 03:45:38;;;;;;;;;;;;;;;;;;2098769;28;19920;-46
2022/10/23 03:46:39;;;;;;;;;;;;;;;;;;2098468;28;19921;-47
2022/10/23 03:47:40;;;;;;;;;;;;;;;;;;2098648;28;20027;-46
2022/10/23 03:48:42;;;;;;;;;;;;;;;;;;2098558;28;19963;-47
2022/10/23 03:49:42;;;;;;;;;;;;;;;;;;2098707;28;19920;-46
2022/10/23 03:50:43;;;;;;;;;;;;;;;;;;2098435;28;19929;-45
2022/10/23 03:51:50;;;;;;;;;;;;;;;;;;2098694;28;19920;-45
2022/10/23 03:52:51;;;;;;;;;;;;;;;;;;2098662;28;19920;-45
2022/10/23 03:53:52;;;;;;;;;;;;;;;;;;2098618;28;19965;-46
2022/10/23 03:54:53;;;;;;;;;;;;;;;;;;2098678;28;19956;-47
2022/10/23 03:55:53;;;;;;;;;;;;;;;;;;2098666;28;20049;-44
2022/10/23 03:56:54;;;;;;;;;;;;;;;;;;2098513;28;19960;-45
2022/10/23 03:57:57;;;;;;;;;;;;;;;;;;2098471;28;20278;-45
2022/10/23 03:58:58;;;;;;;;;;;;;;;;;;2099935;28;19926;-45
2022/10/23 03:59:59;;;;;;;;;;;;;;;;;;2106852;28;19924;-46
2022/10/23 04:01:00;;;;;;;;;;;;;;;;;;2106987;28;19923;-46
2022/10/23 04:02:01;;;;;;;;;;;;;;;;;;2106757;28;20008;-46
2022/10/23 04:03:02;;;;;;;;;;;;;;;;;;2106871;28;20384;-45
2022/10/23 04:04:03;;;;;;;;;;;;;;;;;;2106930;28;19920;-45
2022/10/23 04:05:03;;;;;;;;;;;;;;;;;;2106984;28;19920;-45
2022/10/23 04:06:04;;;;;;;;;;;;;;;;;;2106780;28;19920;-45
2022/10/23 04:07:05;;;;;;;;;;;;;;;;;;2106779;28;19920;-45
2022/10/23 04:08:06;;;;;;;;;;;;;;;;;;2106798;28;19924;-45
2022/10/23 04:09:06;;;;;;;;;;;;;;;;;;2106809;28;20025;-45
2022/10/23 04:10:07;;;;;;;;;;;;;;;;;;2102826;28;19967;-45
2022/10/23 04:11:08;;;;;;;;;;;;;;;;;;2098487;28;19942;-45
2022/10/23 04:12:09;;;;;;;;;;;;;;;;;;2098377;28;19920;-45
2022/10/23 04:13:10;;;;;;;;;;;;;;;;;;2098557;28;19927;-45
2022/10/23 04:14:11;;;;;;;;;;;;;;;;;;2098461;28;19924;-45
2022/10/23 04:15:11;;;;;;;;;;;;;;;;;;2098508;28;20313;-46
2022/10/23 04:16:12;;;;;;;;;;;;;;;;;;2098569;28;20011;-45
2022/10/23 04:17:13;;;;;;;;;;;;;;;;;;2098269;28;19966;-45
2022/10/23 04:18:14;;;;;;;;;;;;;;;;;;2098392;28;19959;-45
2022/10/23 04:19:16;;;;;;;;;;;;;;;;;;2098527;28;20354;-45
2022/10/23 04:20:16;;;;;;;;;;;;;;;;;;2098600;28;20099;-45
2022/10/23 04:21:17;;;;;;;;;;;;;;;;;;2098512;28;19927;-45
2022/10/23 04:22:18;;;;;;;;;;;;;;;;;;2098326;28;19920;-44
2022/10/23 04:23:19;;;;;;;;;;;;;;;;;;2098487;28;20311;-44
2022/10/23 04:24:20;;;;;;;;;;;;;;;;;;2098448;28;20392;-44
2022/10/23 04:25:20;;;;;;;;;;;;;;;;;;2098626;28;20396;-44
2022/10/23 04:26:21;;;;;;;;;;;;;;;;;;2098448;28;20419;-44
2022/10/23 04:27:22;;;;;;;;;;;;;;;;;;2098239;28;20349;-44
2022/10/23 04:28:23;;;;;;;;;;;;;;;;;;2098378;28;20365;-45
2022/10/23 04:29:24;;;;;;;;;;;;;;;;;;2098339;28;19927;-45
2022/10/23 04:30:25;;;;;;;;;;;;;;;;;;2098436;28;19928;-44
2022/10/23 04:31:25;;;;;;;;;;;;;;;;;;2098363;28;20274;-45
2022/10/23 04:32:26;;;;;;;;;;;;;;;;;;2098248;28;19930;-45
2022/10/23 04:33:27;;;;;;;;;;;;;;;;;;2098418;28;20007;-45
2022/10/23 04:34:28;;;;;;;;;;;;;;;;;;2098430;28;20283;-45
2022/10/23 04:35:29;;;;;;;;;;;;;;;;;;2098395;28;19921;-46
2022/10/23 04:36:30;;;;;;;;;;;;;;;;;;2098273;28;19926;-46
2022/10/23 04:37:30;;;;;;;;;;;;;;;;;;2098227;28;20370;-46
2022/10/23 04:38:31;;;;;;;;;;;;;;;;;;2098317;28;19963;-46
2022/10/23 04:39:32;;;;;;;;;;;;;;;;;;2098283;28;19924;-45
2022/10/23 04:40:33;;;;;;;;;;;;;;;;;;2098164;28;19963;-46
2022/10/23 04:41:34;;;;;;;;;;;;;;;;;;2098161;28;19925;-45
2022/10/23 04:42:34;;;;;;;;;;;;;;;;;;2098322;28;19920;-45
2022/10/23 04:43:35;;;;;;;;;;;;;;;;;;2098404;28;19974;-46
2022/10/23 04:44:36;;;;;;;;;;;;;;;;;;2098429;28;19947;-45
2022/10/23 04:45:37;;;;;;;;;;;;;;;;;;2098252;28;19920;-45
2022/10/23 04:46:38;;;;;;;;;;;;;;;;;;2098273;28;19920;-44
2022/10/23 04:47:38;;;;;;;;;;;;;;;;;;2098178;28;20008;-45
2022/10/23 04:48:39;;;;;;;;;;;;;;;;;;2098343;28;20007;-44
2022/10/23 04:49:40;;;;;;;;;;;;;;;;;;2098161;28;20281;-44
2022/10/23 04:50:41;;;;;;;;;;;;;;;;;;2098288;28;20033;-45
2022/10/23 04:51:42;;;;;;;;;;;;;;;;;;2098160;28;20416;-45
2022/10/23 04:52:43;;;;;;;;;;;;;;;;;;2098164;28;19920;-45
2022/10/23 04:53:43;;;;;;;;;;;;;;;;;;2098246;28;19960;-45
2022/10/23 04:54:44;;;;;;;;;;;;;;;;;;2098190;28;19928;-45
2022/10/23 04:55:45;;;;;;;;;;;;;;;;;;2103848;28;19927;-46
2022/10/23 04:56:46;;;;;;;;;;;;;;;;;;2106544;28;19960;-46
2022/10/23 04:57:47;;;;;;;;;;;;;;;;;;2106645;28;19928;-45
2022/10/23 04:58:48;;;;;;;;;;;;;;;;;;2106472;28;19942;-45
2022/10/23 04:59:48;;;;;;;;;;;;;;;;;;2106649;28;19927;-45
2022/10/23 05:00:49;;;;;;;;;;;;;;;;;;2106495;28;19988;-45
2022/10/23 05:01:50;;;;;;;;;;;;;;;;;;2106399;28;19920;-45
2022/10/23 05:02:52;;;;;;;;;;;;;;;;;;2105735;28;19920;-45
2022/10/23 05:03:52;;;;;;;;;;;;;;;;;;2106576;28;19920;-46
2022/10/23 05:04:53;;;;;;;;;;;;;;;;;;2106561;28;20334;-44
2022/10/23 05:05:54;;;;;;;;;;;;;;;;;;2106497;28;19958;-44
2022/10/23 05:06:55;;;;;;;;;;;;;;;;;;2106484;28;19969;-45
2022/10/23 05:07:56;;;;;;;;;;;;;;;;;;2106776;28;19920;-44
2022/10/23 05:08:57;;;;;;;;;;;;;;;;;;2106764;28;20382;-56
2022/10/23 05:09:57;;;;;;;;;;;;;;;;;;2103673;28;19926;-55
2022/10/23 05:10:58;;;;;;;;;;;;;;;;;;2098001;28;19956;-55
2022/10/23 05:11:59;;;;;;;;;;;;;;;;;;2098031;28;19924;-55
2022/10/23 05:13:00;;;;;;;;;;;;;;;;;;2098104;28;19931;-56
2022/10/23 05:14:00;;;;;;;;;;;;;;;;;;2098021;28;19924;-55
2022/10/23 05:15:01;;;;;;;;;;;;;;;;;;2098055;28;19920;-55
2022/10/23 05:16:02;;;;;;;;;;;;;;;;;;2098146;28;19965;-56
2022/10/23 05:17:03;;;;;;;;;;;;;;;;;;2097869;28;19959;-56
2022/10/23 05:18:04;;;;;;;;;;;;;;;;;;2098344;28;20002;-55
2022/10/23 05:19:05;;;;;;;;;;;;;;;;;;2098013;28;20038;-56
2022/10/23 05:20:06;;;;;;;;;;;;;;;;;;2098227;28;19920;-46
2022/10/23 05:21:06;;;;;;;;;;;;;;;;;;2098075;28;19978;-45
2022/10/23 05:22:07;;;;;;;;;;;;;;;;;;2097968;28;19920;-46
2022/10/23 05:23:09;;;;;;;;;;;;;;;;;;2098201;28;19920;-45
2022/10/23 05:24:09;;;;;;;;;;;;;;;;;;2098025;28;19920;-45
2022/10/23 05:25:10;;;;;;;;;;;;;;;;;;2098112;28;19924;-45
2022/10/23 05:26:11;;;;;;;;;;;;;;;;;;2097984;28;20018;-45
2022/10/23 05:27:12;;;;;;;;;;;;;;;;;;2098001;28;19965;-46
2022/10/23 05:28:13;;;;;;;;;;;;;;;;;;2098072;28;19920;-46
2022/10/23 05:29:13;;;;;;;;;;;;;;;;;;2098018;28;19921;-44
2022/10/23 05:30:14;;;;;;;;;;;;;;;;;;2098050;28;20015;-44
2022/10/23 05:31:15;;;;;;;;;;;;;;;;;;2098310;28;20406;-46
2022/10/23 05:32:16;;;;;;;;;;;;;;;;;;2097882;28;19971;-44
2022/10/23 05:33:17;;;;;;;;;;;;;;;;;;2098072;28;19931;-44
2022/10/23 05:34:17;;;;;;;;;;;;;;;;;;2097996;28;19924;-44
2022/10/23 05:35:18;;;;;;;;;;;;;;;;;;2098067;28;19920;-44
2022/10/23 05:36:19;;;;;;;;;;;;;;;;;;2097857;28;20377;-44
2022/10/23 05:37:20;;;;;;;;;;;;;;;;;;2097925;28;20357;-44
2022/10/23 05:38:21;;;;;;;;;;;;;;;;;;2098041;28;19920;-44
2022/10/23 05:39:22;;;;;;;;;;;;;;;;;;2097902;28;19990;-44
2022/10/23 05:40:22;;;;;;;;;;;;;;;;;;2098082;28;19928;-44
2022/10/23 05:41:23;;;;;;;;;;;;;;;;;;2097958;28;19920;-44
2022/10/23 05:42:24;;;;;;;;;;;;;;;;;;2097841;28;19927;-44
2022/10/23 05:43:26;;;;;;;;;;;;;;;;;;2097867;28;19920;-44
2022/10/23 05:44:26;;;;;;;;;;;;;;;;;;2097989;28;19924;-44
2022/10/23 05:45:27;;;;;;;;;;;;;;;;;;2097998;28;19921;-44
2022/10/23 05:46:28;;;;;;;;;;;;;;;;;;2097977;28;19920;-44
2022/10/23 05:47:30;;;;;;;;;;;;;;;;;;2097864;28;19924;-44
2022/10/23 05:48:30;;;;;;;;;;;;;;;;;;2098078;28;20365;-54
2022/10/23 05:49:35;;;;;;;;;;;;;;;;;;2098000;28;19920;-55
2022/10/23 05:50:36;;;;;;;;;;;;;;;;;;2097844;28;19943;-54
2022/10/23 05:51:37;;;;;;;;;;;;;;;;;;2100187;28;19931;-54
2022/10/23 05:52:37;;;;;;;;;;;;;;;;;;2106257;28;19920;-55
2022/10/23 05:53:38;;;;;;;;;;;;;;;;;;2106189;28;19966;-54
2022/10/23 05:54:42;;;;;;;;;;;;;;;;;;2106212;28;19920;-55
2022/10/23 05:55:43;;;;;;;;;;;;;;;;;;2106209;28;20251;-53
2022/10/23 05:56:43;;;;;;;;;;;;;;;;;;2106126;28;19977;-55
2022/10/23 05:58:02;;;;;;;;;;;;;;;;;;2106323;28;19920;-55
2022/10/23 05:59:03;;;;;;;;;;;;;;;;;;2101669;28;19920;-55
2022/10/23 06:00:04;;;;;;;;;;;;;;;;;;2097950;28;20045;-55
2022/10/23 06:01:05;;;;;;;;;;;;;;;;;;2097888;28;20364;-55
2022/10/23 06:02:06;;;;;;;;;;;;;;;;;;2097963;28;19920;-55
2022/10/23 06:03:06;;;;;;;;;;;;;;;;;;2097817;28;19928;-56
2022/10/23 06:04:07;;;;;;;;;;;;;;;;;;2097790;28;19952;-55
2022/10/23 06:05:08;;;;;;;;;;;;;;;;;;2097902;28;20364;-55
2022/10/23 06:06:09;;;;;;;;;;;;;;;;;;2097798;28;19920;-54
2022/10/23 06:07:10;;;;;;;;;;;;;;;;;;2097706;28;19920;-54
2022/10/23 06:08:11;;;;;;;;;;;;;;;;;;2097676;28;19924;-55
2022/10/23 06:09:11;;;;;;;;;;;;;;;;;;2098085;28;19921;-44
2022/10/23 06:10:12;;;;;;;;;;;;;;;;;;2097684;28;20423;-45
2022/10/23 06:11:13;;;;;;;;;;;;;;;;;;2097756;28;19920;-45
2022/10/23 06:12:14;;;;;;;;;;;;;;;;;;2097734;28;20019;-44
2022/10/23 06:13:14;;;;;;;;;;;;;;;;;;2098092;28;20365;-44
2022/10/23 06:14:15;;;;;;;;;;;;;;;;;;2097703;28;19990;-44
2022/10/23 06:15:16;;;;;;;;;;;;;;;;;;2098628;28;19924;-44
2022/10/23 06:16:17;;;;;;;;;;;;;;;;;;2099330;28;19931;-44
2022/10/23 06:17:18;;;;;;;;;;;;;;;;;;2099073;28;20285;-44
2022/10/23 06:18:19;;;;;;;;;;;;;;;;;;2099312;28;20369;-45
2022/10/23 06:19:19;;;;;;;;;;;;;;;;;;2099284;28;19920;-43
2022/10/23 06:20:20;;;;;;;;;;;;;;;;;;2099148;28;19920;-44
2022/10/23 06:21:24;;;;;;;;;;;;;;;;;;2099110;28;20328;-44
2022/10/23 06:22:25;;;;;;;;;;;;;;;;;;2099412;28;19955;-44
2022/10/23 06:23:25;;;;;;;;;;;;;;;;;;2099256;28;20358;-44
2022/10/23 06:24:26;;;;;;;;;;;;;;;;;;2099282;28;19971;-44
2022/10/23 06:25:27;;;;;;;;;;;;;;;;;;2099152;28;19924;-44
2022/10/23 06:26:28;;;;;;;;;;;;;;;;;;2099093;28;19970;-44
2022/10/23 06:27:29;;;;;;;;;;;;;;;;;;2099132;28;20054;-45
2022/10/23 06:28:30;;;;;;;;;;;;;;;;;;2099104;28;19920;-45
2022/10/23 06:29:30;;;;;;;;;;;;;;;;;;2099220;28;19920;-44
2022/10/23 06:30:31;;;;;;;;;;;;;;;;;;2099087;28;20292;-44
2022/10/23 06:31:32;;;;;;;;;;;;;;;;;;2099150;28;19921;-44
2022/10/23 06:32:33;;;;;;;;;;;;;;;;;;2099186;28;20074;-44
2022/10/23 06:33:34;;;;;;;;;;;;;;;;;;2099267;28;19920;-44
2022/10/23 06:34:35;;;;;;;;;;;;;;;;;;2099228;28;20403;-44
2022/10/23 06:35:35;;;;;;;;;;;;;;;;;;2099037;28;19975;-44
2022/10/23 06:36:37;;;;;;;;;;;;;;;;;;2099052;28;19931;-44
2022/10/23 06:37:38;;;;;;;;;;;;;;;;;;2099053;28;19921;-44
2022/10/23 06:38:39;;;;;;;;;;;;;;;;;;2099345;28;20415;-54
2022/10/23 06:39:39;;;;;;;;;;;;;;;;;;2099016;28;19928;-54
2022/10/23 06:40:40;;;;;;;;;;;;;;;;;;2099066;28;19921;-54
2022/10/23 06:41:43;;;;;;;;;;;;;;;;;;2099060;28;19920;-54
2022/10/23 06:42:44;;;;;;;;;;;;;;;;;;2099204;28;19959;-54
2022/10/23 06:43:45;;;;;;;;;;;;;;;;;;2098918;28;19986;-55
2022/10/23 06:44:45;;;;;;;;;;;;;;;;;;2099359;28;19920;-55
2022/10/23 06:45:46;;;;;;;;;;;;;;;;;;2099156;28;19947;-55
2022/10/23 06:46:47;;;;;;;;;;;;;;;;;;2098923;28;19924;-54
2022/10/23 06:47:48;;;;;;;;;;;;;;;;;;2100957;28;19920;-54
2022/10/23 06:48:49;;;;;;;;;;;;;;;;;;2107316;28;19971;-55
2022/10/23 06:49:50;;;;;;;;;;;;;;;;;;2107344;28;19920;-55
2022/10/23 06:50:51;;;;;;;;;;;;;;;;;;2107358;28;20010;-53
2022/10/23 06:51:52;;;;;;;;;;;;;;;;;;2107306;28;20695;-55
2022/10/23 06:52:52;;;;;;;;;;;;;;;;;;2107324;28;19927;-52
2022/10/23 06:53:53;;;;;;;;;;;;;;;;;;2107368;28;19959;-53
2022/10/23 06:54:54;;;;;;;;;;;;;;;;;;2106431;28;19924;-52
2022/10/23 06:55:55;;;;;;;;;;;;;;;;;;2098936;28;19970;-53